sensor_id;sensor_type;location;lat;lon;timestamp;P1;durP1;ratioP1;P2;durP2;ratioP2
6131;SDS011;3097;42.692;23.278;2023-03-01T00:02:18;3.53;;;3.10;;
6131;SDS011;3097;42.692;23.278;2023-03-01T00:04:44;3.67;;;3.27;;
6131;SDS011;3097;42.692;23.278;2023-03-01T00:07:10;3.47;;;3.10;;
6131;SDS011;3097;42.692;23.278;2023-03-01T00:09:36;3.83;;;3.43;;
6131;SDS011;3097;42.692;23.278;2023-03-01T00:12:02;3.43;;;3.13;;
6131;SDS011;3097;42.692;23.278;2023-03-01T00:14:28;35.20;;;18.33;;
6131;SDS011;3097;42.692;23.278;2023-03-01T00:16:53;43.40;;;23.23;;
6131;SDS011;3097;42.692;23.278;2023-03-01T00:19:19;37.87;;;20.33;;
6131;SDS011;3097;42.692;23.278;2023-03-01T00:21:47;32.27;;;17.07;;
6131;SDS011;3097;42.692;23.278;2023-03-01T00:24:13;26.53;;;15.20;;
6131;SDS011;3097;42.692;23.278;2023-03-01T00:26:38;22.90;;;13.23;;
6131;SDS011;3097;42.692;23.278;2023-03-01T00:29:04;29.93;;;17.57;;
6131;SDS011;3097;42.692;23.278;2023-03-01T00:31:30;18.63;;;12.07;;
6131;SDS011;3097;42.692;23.278;2023-03-01T00:33:58;17.27;;;11.13;;
6131;SDS011;3097;42.692;23.278;2023-03-01T00:36:25;13.43;;;9.77;;
6131;SDS011;3097;42.692;23.278;2023-03-01T00:38:53;13.83;;;9.13;;
6131;SDS011;3097;42.692;23.278;2023-03-01T00:41:19;14.00;;;9.47;;
6131;SDS011;3097;42.692;23.278;2023-03-01T00:43:47;8.97;;;7.13;;
6131;SDS011;3097;42.692;23.278;2023-03-01T00:46:15;9.53;;;6.33;;
6131;SDS011;3097;42.692;23.278;2023-03-01T00:48:42;7.40;;;5.47;;
6131;SDS011;3097;42.692;23.278;2023-03-01T00:51:17;6.07;;;4.80;;
6131;SDS011;3097;42.692;23.278;2023-03-01T00:53:43;6.00;;;4.53;;
6131;SDS011;3097;42.692;23.278;2023-03-01T00:56:10;4.97;;;3.83;;
6131;SDS011;3097;42.692;23.278;2023-03-01T00:58:36;4.70;;;3.47;;
6131;SDS011;3097;42.692;23.278;2023-03-01T01:01:12;3.93;;;2.50;;
6131;SDS011;3097;42.692;23.278;2023-03-01T01:03:43;3.70;;;3.27;;
6131;SDS011;3097;42.692;23.278;2023-03-01T01:06:13;2.70;;;2.33;;
6131;SDS011;3097;42.692;23.278;2023-03-01T01:08:40;3.00;;;2.80;;
6131;SDS011;3097;42.692;23.278;2023-03-01T01:11:05;2.43;;;2.17;;
6131;SDS011;3097;42.692;23.278;2023-03-01T01:13:33;3.17;;;2.87;;
6131;SDS011;3097;42.692;23.278;2023-03-01T01:16:01;2.80;;;2.53;;
6131;SDS011;3097;42.692;23.278;2023-03-01T01:18:27;2.60;;;2.40;;
6131;SDS011;3097;42.692;23.278;2023-03-01T01:20:52;3.07;;;2.77;;
6131;SDS011;3097;42.692;23.278;2023-03-01T01:23:18;2.50;;;1.90;;
6131;SDS011;3097;42.692;23.278;2023-03-01T01:25:43;2.70;;;2.50;;
6131;SDS011;3097;42.692;23.278;2023-03-01T01:28:09;2.90;;;2.50;;
6131;SDS011;3097;42.692;23.278;2023-03-01T01:30:34;2.53;;;2.33;;
6131;SDS011;3097;42.692;23.278;2023-03-01T01:32:59;2.63;;;2.23;;
6131;SDS011;3097;42.692;23.278;2023-03-01T01:35:25;2.57;;;2.40;;
6131;SDS011;3097;42.692;23.278;2023-03-01T01:37:50;2.40;;;2.20;;
6131;SDS011;3097;42.692;23.278;2023-03-01T01:40:16;2.30;;;2.13;;
6131;SDS011;3097;42.692;23.278;2023-03-01T01:42:41;2.53;;;2.33;;
6131;SDS011;3097;42.692;23.278;2023-03-01T01:47:54;2.07;;;1.97;;
6131;SDS011;3097;42.692;23.278;2023-03-01T01:50:22;2.30;;;2.20;;
6131;SDS011;3097;42.692;23.278;2023-03-01T01:52:48;2.53;;;2.37;;
6131;SDS011;3097;42.692;23.278;2023-03-01T01:55:20;2.10;;;2.00;;
6131;SDS011;3097;42.692;23.278;2023-03-01T01:57:52;2.70;;;2.50;;
6131;SDS011;3097;42.692;23.278;2023-03-01T02:00:21;2.63;;;2.37;;
6131;SDS011;3097;42.692;23.278;2023-03-01T02:02:51;2.07;;;1.97;;
6131;SDS011;3097;42.692;23.278;2023-03-01T02:08:11;1.80;;;1.70;;
6131;SDS011;3097;42.692;23.278;2023-03-01T02:10:38;2.07;;;1.83;;
6131;SDS011;3097;42.692;23.278;2023-03-01T02:13:05;2.03;;;1.93;;
6131;SDS011;3097;42.692;23.278;2023-03-01T02:15:34;2.13;;;2.03;;
6131;SDS011;3097;42.692;23.278;2023-03-01T02:18:02;1.87;;;1.77;;
6131;SDS011;3097;42.692;23.278;2023-03-01T02:23:16;2.10;;;2.00;;
6131;SDS011;3097;42.692;23.278;2023-03-01T02:30:42;2.00;;;1.90;;
6131;SDS011;3097;42.692;23.278;2023-03-01T02:33:29;2.20;;;2.10;;
6131;SDS011;3097;42.692;23.278;2023-03-01T02:36:20;2.30;;;2.20;;
6131;SDS011;3097;42.692;23.278;2023-03-01T02:38:48;3.13;;;2.40;;
6131;SDS011;3097;42.692;23.278;2023-03-01T02:41:16;2.80;;;2.50;;
6131;SDS011;3097;42.692;23.278;2023-03-01T02:43:45;2.20;;;2.10;;
6131;SDS011;3097;42.692;23.278;2023-03-01T02:46:16;1.83;;;1.73;;
6131;SDS011;3097;42.692;23.278;2023-03-01T02:48:45;2.40;;;2.30;;
6131;SDS011;3097;42.692;23.278;2023-03-01T02:54:15;2.93;;;2.73;;
6131;SDS011;3097;42.692;23.278;2023-03-01T02:57:01;2.30;;;2.10;;
6131;SDS011;3097;42.692;23.278;2023-03-01T02:59:33;2.17;;;2.00;;
6131;SDS011;3097;42.692;23.278;2023-03-01T03:02:04;2.10;;;1.90;;
6131;SDS011;3097;42.692;23.278;2023-03-01T03:04:31;2.70;;;2.20;;
6131;SDS011;3097;42.692;23.278;2023-03-01T03:06:57;2.90;;;2.70;;
6131;SDS011;3097;42.692;23.278;2023-03-01T03:09:22;2.70;;;2.03;;
6131;SDS011;3097;42.692;23.278;2023-03-01T03:11:48;2.50;;;2.30;;
6131;SDS011;3097;42.692;23.278;2023-03-01T03:14:15;2.70;;;2.50;;
6131;SDS011;3097;42.692;23.278;2023-03-01T03:16:42;2.37;;;2.17;;
6131;SDS011;3097;42.692;23.278;2023-03-01T03:19:09;2.60;;;2.40;;
6131;SDS011;3097;42.692;23.278;2023-03-01T03:21:35;2.87;;;2.67;;
6131;SDS011;3097;42.692;23.278;2023-03-01T03:24:01;3.00;;;2.77;;
6131;SDS011;3097;42.692;23.278;2023-03-01T03:26:26;2.97;;;2.53;;
6131;SDS011;3097;42.692;23.278;2023-03-01T03:28:52;3.00;;;2.70;;
6131;SDS011;3097;42.692;23.278;2023-03-01T03:31:19;3.23;;;2.97;;
6131;SDS011;3097;42.692;23.278;2023-03-01T03:33:45;2.70;;;2.50;;
6131;SDS011;3097;42.692;23.278;2023-03-01T03:36:14;4.27;;;3.20;;
6131;SDS011;3097;42.692;23.278;2023-03-01T03:38:43;3.20;;;2.90;;
6131;SDS011;3097;42.692;23.278;2023-03-01T03:41:09;2.90;;;2.70;;
6131;SDS011;3097;42.692;23.278;2023-03-01T03:43:35;2.87;;;2.67;;
6131;SDS011;3097;42.692;23.278;2023-03-01T03:46:38;2.60;;;2.40;;
6131;SDS011;3097;42.692;23.278;2023-03-01T03:49:04;2.80;;;2.60;;
6131;SDS011;3097;42.692;23.278;2023-03-01T03:51:29;2.43;;;2.20;;
6131;SDS011;3097;42.692;23.278;2023-03-01T03:53:55;2.40;;;2.20;;
6131;SDS011;3097;42.692;23.278;2023-03-01T03:56:20;2.63;;;2.40;;
6131;SDS011;3097;42.692;23.278;2023-03-01T03:58:46;2.73;;;2.53;;
6131;SDS011;3097;42.692;23.278;2023-03-01T04:01:30;2.60;;;2.40;;
6131;SDS011;3097;42.692;23.278;2023-03-01T04:04:15;3.33;;;2.80;;
6131;SDS011;3097;42.692;23.278;2023-03-01T04:06:43;3.13;;;2.83;;
6131;SDS011;3097;42.692;23.278;2023-03-01T04:09:10;3.13;;;2.83;;
6131;SDS011;3097;42.692;23.278;2023-03-01T04:11:35;3.33;;;2.50;;
6131;SDS011;3097;42.692;23.278;2023-03-01T04:14:07;3.27;;;2.97;;
6131;SDS011;3097;42.692;23.278;2023-03-01T04:16:33;2.83;;;2.63;;
6131;SDS011;3097;42.692;23.278;2023-03-01T04:18:58;2.70;;;2.50;;
6131;SDS011;3097;42.692;23.278;2023-03-01T04:21:25;3.33;;;3.03;;
6131;SDS011;3097;42.692;23.278;2023-03-01T04:23:51;2.87;;;2.67;;
6131;SDS011;3097;42.692;23.278;2023-03-01T04:26:18;3.17;;;2.87;;
6131;SDS011;3097;42.692;23.278;2023-03-01T04:28:45;3.00;;;2.70;;
6131;SDS011;3097;42.692;23.278;2023-03-01T04:31:12;2.73;;;2.53;;
6131;SDS011;3097;42.692;23.278;2023-03-01T04:33:47;3.30;;;2.70;;
6131;SDS011;3097;42.692;23.278;2023-03-01T04:36:14;2.93;;;2.73;;
6131;SDS011;3097;42.692;23.278;2023-03-01T04:38:41;2.60;;;2.40;;
6131;SDS011;3097;42.692;23.278;2023-03-01T04:41:08;2.97;;;2.77;;
6131;SDS011;3097;42.692;23.278;2023-03-01T04:43:36;3.20;;;2.90;;
6131;SDS011;3097;42.692;23.278;2023-03-01T04:46:03;2.50;;;2.23;;
6131;SDS011;3097;42.692;23.278;2023-03-01T04:48:33;2.50;;;2.30;;
6131;SDS011;3097;42.692;23.278;2023-03-01T04:50:59;2.63;;;2.43;;
6131;SDS011;3097;42.692;23.278;2023-03-01T04:53:25;3.37;;;2.60;;
6131;SDS011;3097;42.692;23.278;2023-03-01T04:55:52;3.80;;;2.70;;
6131;SDS011;3097;42.692;23.278;2023-03-01T04:58:19;2.60;;;2.40;;
6131;SDS011;3097;42.692;23.278;2023-03-01T05:00:44;3.47;;;2.73;;
6131;SDS011;3097;42.692;23.278;2023-03-01T05:03:10;4.77;;;2.70;;
6131;SDS011;3097;42.692;23.278;2023-03-01T05:05:36;2.83;;;2.63;;
6131;SDS011;3097;42.692;23.278;2023-03-01T05:08:06;2.80;;;2.60;;
6131;SDS011;3097;42.692;23.278;2023-03-01T05:10:34;2.77;;;2.43;;
6131;SDS011;3097;42.692;23.278;2023-03-01T05:13:01;2.63;;;2.43;;
6131;SDS011;3097;42.692;23.278;2023-03-01T05:15:29;3.00;;;2.70;;
6131;SDS011;3097;42.692;23.278;2023-03-01T05:17:56;3.73;;;3.27;;
6131;SDS011;3097;42.692;23.278;2023-03-01T05:20:26;3.83;;;3.43;;
6131;SDS011;3097;42.692;23.278;2023-03-01T05:22:55;3.40;;;3.10;;
6131;SDS011;3097;42.692;23.278;2023-03-01T05:25:23;3.50;;;3.20;;
6131;SDS011;3097;42.692;23.278;2023-03-01T05:27:49;3.00;;;2.80;;
6131;SDS011;3097;42.692;23.278;2023-03-01T05:30:15;4.33;;;3.70;;
6131;SDS011;3097;42.692;23.278;2023-03-01T05:32:43;3.33;;;3.07;;
6131;SDS011;3097;42.692;23.278;2023-03-01T05:35:11;3.27;;;2.97;;
6131;SDS011;3097;42.692;23.278;2023-03-01T05:37:39;4.93;;;3.97;;
6131;SDS011;3097;42.692;23.278;2023-03-01T05:40:09;3.30;;;3.00;;
6131;SDS011;3097;42.692;23.278;2023-03-01T05:42:44;4.00;;;3.60;;
6131;SDS011;3097;42.692;23.278;2023-03-01T05:45:14;3.73;;;3.27;;
6131;SDS011;3097;42.692;23.278;2023-03-01T05:47:40;3.23;;;2.93;;
6131;SDS011;3097;42.692;23.278;2023-03-01T05:50:17;5.13;;;3.87;;
6131;SDS011;3097;42.692;23.278;2023-03-01T05:52:46;4.17;;;3.77;;
6131;SDS011;3097;42.692;23.278;2023-03-01T05:55:13;3.53;;;3.00;;
6131;SDS011;3097;42.692;23.278;2023-03-01T05:57:40;4.23;;;2.93;;
6131;SDS011;3097;42.692;23.278;2023-03-01T06:00:06;4.13;;;3.37;;
6131;SDS011;3097;42.692;23.278;2023-03-01T06:02:32;5.20;;;3.70;;
6131;SDS011;3097;42.692;23.278;2023-03-01T06:04:57;4.80;;;3.47;;
6131;SDS011;3097;42.692;23.278;2023-03-01T06:07:23;7.30;;;3.63;;
6131;SDS011;3097;42.692;23.278;2023-03-01T06:09:48;6.27;;;3.47;;
6131;SDS011;3097;42.692;23.278;2023-03-01T06:12:14;3.57;;;3.27;;
6131;SDS011;3097;42.692;23.278;2023-03-01T06:14:39;4.00;;;3.70;;
6131;SDS011;3097;42.692;23.278;2023-03-01T06:17:04;4.23;;;3.00;;
6131;SDS011;3097;42.692;23.278;2023-03-01T06:19:31;3.23;;;2.93;;
6131;SDS011;3097;42.692;23.278;2023-03-01T06:21:56;2.43;;;2.23;;
6131;SDS011;3097;42.692;23.278;2023-03-01T06:24:22;3.40;;;3.10;;
6131;SDS011;3097;42.692;23.278;2023-03-01T06:26:48;3.50;;;2.80;;
6131;SDS011;3097;42.692;23.278;2023-03-01T06:29:13;3.30;;;3.00;;
6131;SDS011;3097;42.692;23.278;2023-03-01T06:31:39;4.73;;;3.10;;
6131;SDS011;3097;42.692;23.278;2023-03-01T06:34:06;3.60;;;3.30;;
6131;SDS011;3097;42.692;23.278;2023-03-01T06:36:31;3.13;;;2.83;;
6131;SDS011;3097;42.692;23.278;2023-03-01T06:38:56;4.23;;;3.17;;
6131;SDS011;3097;42.692;23.278;2023-03-01T06:41:22;4.17;;;3.47;;
6131;SDS011;3097;42.692;23.278;2023-03-01T06:43:47;7.33;;;3.17;;
6131;SDS011;3097;42.692;23.278;2023-03-01T06:46:13;4.03;;;3.10;;
6131;SDS011;3097;42.692;23.278;2023-03-01T06:48:38;3.33;;;3.03;;
6131;SDS011;3097;42.692;23.278;2023-03-01T06:51:04;2.90;;;2.70;;
6131;SDS011;3097;42.692;23.278;2023-03-01T06:53:29;3.90;;;3.23;;
6131;SDS011;3097;42.692;23.278;2023-03-01T06:55:55;4.60;;;2.97;;
6131;SDS011;3097;42.692;23.278;2023-03-01T06:58:21;4.00;;;3.30;;
6131;SDS011;3097;42.692;23.278;2023-03-01T07:00:47;3.43;;;3.07;;
6131;SDS011;3097;42.692;23.278;2023-03-01T07:03:12;3.00;;;2.80;;
6131;SDS011;3097;42.692;23.278;2023-03-01T07:05:38;5.67;;;3.60;;
6131;SDS011;3097;42.692;23.278;2023-03-01T07:08:03;3.97;;;3.57;;
6131;SDS011;3097;42.692;23.278;2023-03-01T07:10:29;4.77;;;3.57;;
6131;SDS011;3097;42.692;23.278;2023-03-01T07:12:55;4.47;;;3.10;;
6131;SDS011;3097;42.692;23.278;2023-03-01T07:15:21;3.50;;;2.87;;
6131;SDS011;3097;42.692;23.278;2023-03-01T07:17:47;3.23;;;2.93;;
6131;SDS011;3097;42.692;23.278;2023-03-01T07:20:15;5.20;;;3.40;;
6131;SDS011;3097;42.692;23.278;2023-03-01T07:22:40;4.23;;;3.30;;
6131;SDS011;3097;42.692;23.278;2023-03-01T07:25:07;3.10;;;2.80;;
6131;SDS011;3097;42.692;23.278;2023-03-01T07:27:33;3.23;;;2.90;;
6131;SDS011;3097;42.692;23.278;2023-03-01T07:29:58;5.83;;;3.20;;
6131;SDS011;3097;42.692;23.278;2023-03-01T07:32:24;3.10;;;2.90;;
6131;SDS011;3097;42.692;23.278;2023-03-01T07:34:50;4.03;;;2.97;;
6131;SDS011;3097;42.692;23.278;2023-03-01T07:37:16;3.53;;;2.83;;
6131;SDS011;3097;42.692;23.278;2023-03-01T07:39:41;3.30;;;3.10;;
6131;SDS011;3097;42.692;23.278;2023-03-01T07:42:07;4.33;;;2.90;;
6131;SDS011;3097;42.692;23.278;2023-03-01T07:44:35;3.17;;;2.90;;
6131;SDS011;3097;42.692;23.278;2023-03-01T07:47:00;3.47;;;3.17;;
6131;SDS011;3097;42.692;23.278;2023-03-01T07:49:26;2.83;;;2.50;;
6131;SDS011;3097;42.692;23.278;2023-03-01T07:51:52;3.43;;;3.10;;
6131;SDS011;3097;42.692;23.278;2023-03-01T07:54:17;3.40;;;3.10;;
6131;SDS011;3097;42.692;23.278;2023-03-01T07:56:43;3.43;;;3.00;;
6131;SDS011;3097;42.692;23.278;2023-03-01T07:59:09;4.03;;;2.87;;
6131;SDS011;3097;42.692;23.278;2023-03-01T08:01:34;3.63;;;3.10;;
6131;SDS011;3097;42.692;23.278;2023-03-01T08:04:00;4.70;;;3.00;;
6131;SDS011;3097;42.692;23.278;2023-03-01T08:06:25;4.23;;;3.23;;
6131;SDS011;3097;42.692;23.278;2023-03-01T08:08:50;3.30;;;3.00;;
6131;SDS011;3097;42.692;23.278;2023-03-01T08:11:16;3.37;;;3.07;;
6131;SDS011;3097;42.692;23.278;2023-03-01T08:13:42;4.60;;;3.27;;
6131;SDS011;3097;42.692;23.278;2023-03-01T08:16:10;3.33;;;3.03;;
6131;SDS011;3097;42.692;23.278;2023-03-01T08:18:37;3.67;;;3.23;;
6131;SDS011;3097;42.692;23.278;2023-03-01T08:21:03;3.47;;;3.17;;
6131;SDS011;3097;42.692;23.278;2023-03-01T08:23:33;3.80;;;2.97;;
6131;SDS011;3097;42.692;23.278;2023-03-01T08:28:39;4.47;;;3.37;;
6131;SDS011;3097;42.692;23.278;2023-03-01T08:31:16;3.20;;;2.90;;
6131;SDS011;3097;42.692;23.278;2023-03-01T08:33:46;3.50;;;3.20;;
6131;SDS011;3097;42.692;23.278;2023-03-01T08:36:16;3.80;;;3.37;;
6131;SDS011;3097;42.692;23.278;2023-03-01T08:38:42;3.63;;;3.33;;
6131;SDS011;3097;42.692;23.278;2023-03-01T08:41:07;4.17;;;3.80;;
6131;SDS011;3097;42.692;23.278;2023-03-01T08:46:02;5.20;;;3.80;;
6131;SDS011;3097;42.692;23.278;2023-03-01T08:48:28;4.87;;;3.97;;
6131;SDS011;3097;42.692;23.278;2023-03-01T08:50:54;4.67;;;4.17;;
6131;SDS011;3097;42.692;23.278;2023-03-01T08:53:19;5.07;;;3.30;;
6131;SDS011;3097;42.692;23.278;2023-03-01T08:55:45;4.07;;;3.40;;
6131;SDS011;3097;42.692;23.278;2023-03-01T08:58:10;5.27;;;4.77;;
6131;SDS011;3097;42.692;23.278;2023-03-01T09:00:36;4.00;;;3.70;;
6131;SDS011;3097;42.692;23.278;2023-03-01T09:03:01;4.00;;;3.70;;
6131;SDS011;3097;42.692;23.278;2023-03-01T09:05:27;5.90;;;3.87;;
6131;SDS011;3097;42.692;23.278;2023-03-01T09:07:52;3.60;;;3.30;;
6131;SDS011;3097;42.692;23.278;2023-03-01T09:10:18;3.60;;;3.30;;
6131;SDS011;3097;42.692;23.278;2023-03-01T09:12:43;3.50;;;3.20;;
6131;SDS011;3097;42.692;23.278;2023-03-01T09:15:09;3.77;;;2.53;;
6131;SDS011;3097;42.692;23.278;2023-03-01T09:17:34;3.40;;;3.10;;
6131;SDS011;3097;42.692;23.278;2023-03-01T09:20:01;3.50;;;3.20;;
6131;SDS011;3097;42.692;23.278;2023-03-01T09:22:26;3.40;;;3.10;;
6131;SDS011;3097;42.692;23.278;2023-03-01T09:24:52;3.00;;;2.80;;
6131;SDS011;3097;42.692;23.278;2023-03-01T09:27:17;6.33;;;2.90;;
6131;SDS011;3097;42.692;23.278;2023-03-01T09:29:44;2.50;;;2.30;;
6131;SDS011;3097;42.692;23.278;2023-03-01T09:32:09;2.70;;;2.50;;
6131;SDS011;3097;42.692;23.278;2023-03-01T09:34:35;3.23;;;2.93;;
6131;SDS011;3097;42.692;23.278;2023-03-01T09:37:24;2.60;;;2.33;;
6131;SDS011;3097;42.692;23.278;2023-03-01T09:39:49;3.10;;;2.80;;
6131;SDS011;3097;42.692;23.278;2023-03-01T09:42:15;3.80;;;2.97;;
6131;SDS011;3097;42.692;23.278;2023-03-01T09:47:26;2.17;;;2.07;;
6131;SDS011;3097;42.692;23.278;2023-03-01T09:49:58;2.63;;;2.43;;
6131;SDS011;3097;42.692;23.278;2023-03-01T09:52:42;2.70;;;2.50;;
6131;SDS011;3097;42.692;23.278;2023-03-01T09:55:15;2.40;;;2.00;;
6131;SDS011;3097;42.692;23.278;2023-03-01T09:57:53;2.30;;;2.20;;
6131;SDS011;3097;42.692;23.278;2023-03-01T10:03:08;2.60;;;2.40;;
6131;SDS011;3097;42.692;23.278;2023-03-01T10:08:27;2.40;;;2.20;;
6131;SDS011;3097;42.692;23.278;2023-03-01T10:11:04;2.67;;;2.30;;
6131;SDS011;3097;42.692;23.278;2023-03-01T10:13:50;1.80;;;1.70;;
6131;SDS011;3097;42.692;23.278;2023-03-01T10:16:23;1.50;;;1.40;;
6131;SDS011;3097;42.692;23.278;2023-03-01T10:19:00;3.63;;;2.30;;
6131;SDS011;3097;42.692;23.278;2023-03-01T10:21:28;2.37;;;2.17;;
6131;SDS011;3097;42.692;23.278;2023-03-01T10:23:57;2.03;;;1.83;;
6131;SDS011;3097;42.692;23.278;2023-03-01T10:26:55;2.20;;;2.00;;
6131;SDS011;3097;42.692;23.278;2023-03-01T10:29:23;2.87;;;2.50;;
6131;SDS011;3097;42.692;23.278;2023-03-01T10:31:57;2.53;;;2.33;;
6131;SDS011;3097;42.692;23.278;2023-03-01T10:34:33;2.07;;;1.97;;
6131;SDS011;3097;42.692;23.278;2023-03-01T10:37:21;1.80;;;1.67;;
6131;SDS011;3097;42.692;23.278;2023-03-01T10:39:54;2.90;;;2.43;;
6131;SDS011;3097;42.692;23.278;2023-03-01T10:42:25;3.40;;;2.70;;
6131;SDS011;3097;42.692;23.278;2023-03-01T10:44:52;2.60;;;2.40;;
6131;SDS011;3097;42.692;23.278;2023-03-01T10:47:23;2.87;;;2.40;;
6131;SDS011;3097;42.692;23.278;2023-03-01T10:49:52;3.10;;;2.80;;
6131;SDS011;3097;42.692;23.278;2023-03-01T10:52:18;3.23;;;2.53;;
6131;SDS011;3097;42.692;23.278;2023-03-01T10:54:53;3.83;;;2.47;;
6131;SDS011;3097;42.692;23.278;2023-03-01T10:57:29;2.67;;;2.47;;
6131;SDS011;3097;42.692;23.278;2023-03-01T11:00:14;2.30;;;2.10;;
6131;SDS011;3097;42.692;23.278;2023-03-01T11:03:01;3.27;;;2.23;;
6131;SDS011;3097;42.692;23.278;2023-03-01T11:05:29;2.87;;;2.23;;
6131;SDS011;3097;42.692;23.278;2023-03-01T11:07:59;1.90;;;1.80;;
6131;SDS011;3097;42.692;23.278;2023-03-01T11:10:32;1.90;;;1.80;;
6131;SDS011;3097;42.692;23.278;2023-03-01T11:13:13;1.90;;;1.80;;
6131;SDS011;3097;42.692;23.278;2023-03-01T11:15:41;2.60;;;1.97;;
6131;SDS011;3097;42.692;23.278;2023-03-01T11:18:18;3.13;;;2.10;;
6131;SDS011;3097;42.692;23.278;2023-03-01T11:20:45;2.43;;;2.30;;
6131;SDS011;3097;42.692;23.278;2023-03-01T11:23:14;1.90;;;1.80;;
6131;SDS011;3097;42.692;23.278;2023-03-01T11:25:43;2.03;;;1.93;;
6131;SDS011;3097;42.692;23.278;2023-03-01T11:28:17;2.43;;;2.27;;
6131;SDS011;3097;42.692;23.278;2023-03-01T11:30:51;1.90;;;1.80;;
6131;SDS011;3097;42.692;23.278;2023-03-01T11:42:06;2.00;;;1.90;;
6131;SDS011;3097;42.692;23.278;2023-03-01T11:44:35;1.70;;;1.60;;
6131;SDS011;3097;42.692;23.278;2023-03-01T11:50:07;2.10;;;2.00;;
6131;SDS011;3097;42.692;23.278;2023-03-01T12:09:02;2.93;;;2.10;;
6131;SDS011;3097;42.692;23.278;2023-03-01T12:11:34;3.10;;;2.80;;
6131;SDS011;3097;42.692;23.278;2023-03-01T12:14:08;2.60;;;2.20;;
6131;SDS011;3097;42.692;23.278;2023-03-01T12:19:52;3.67;;;3.20;;
6131;SDS011;3097;42.692;23.278;2023-03-01T12:25:25;4.00;;;2.90;;
6131;SDS011;3097;42.692;23.278;2023-03-01T12:30:31;4.03;;;2.87;;
6131;SDS011;3097;42.692;23.278;2023-03-01T12:35:47;3.40;;;3.10;;
6131;SDS011;3097;42.692;23.278;2023-03-01T12:38:46;3.73;;;3.30;;
6131;SDS011;3097;42.692;23.278;2023-03-01T12:41:43;3.80;;;2.80;;
6131;SDS011;3097;42.692;23.278;2023-03-01T12:46:48;3.60;;;3.23;;
6131;SDS011;3097;42.692;23.278;2023-03-01T12:49:31;4.13;;;3.67;;
6131;SDS011;3097;42.692;23.278;2023-03-01T12:52:12;2.50;;;2.30;;
6131;SDS011;3097;42.692;23.278;2023-03-01T12:54:38;5.47;;;2.67;;
6131;SDS011;3097;42.692;23.278;2023-03-01T13:03:00;3.97;;;3.47;;
6131;SDS011;3097;42.692;23.278;2023-03-01T13:08:16;3.50;;;2.87;;
6131;SDS011;3097;42.692;23.278;2023-03-01T13:11:10;4.33;;;3.13;;
6131;SDS011;3097;42.692;23.278;2023-03-01T13:16:48;4.73;;;3.50;;
6131;SDS011;3097;42.692;23.278;2023-03-01T13:19:22;3.10;;;2.80;;
6131;SDS011;3097;42.692;23.278;2023-03-01T13:21:50;3.33;;;3.03;;
6131;SDS011;3097;42.692;23.278;2023-03-01T13:24:39;4.90;;;3.27;;
6131;SDS011;3097;42.692;23.278;2023-03-01T13:32:20;3.10;;;2.80;;
6131;SDS011;3097;42.692;23.278;2023-03-01T13:34:52;3.33;;;3.07;;
6131;SDS011;3097;42.692;23.278;2023-03-01T13:37:24;3.50;;;3.17;;
6131;SDS011;3097;42.692;23.278;2023-03-01T13:39:54;3.77;;;3.30;;
6131;SDS011;3097;42.692;23.278;2023-03-01T13:42:33;6.30;;;3.30;;
6131;SDS011;3097;42.692;23.278;2023-03-01T13:45:04;3.77;;;3.20;;
6131;SDS011;3097;42.692;23.278;2023-03-01T13:47:40;4.40;;;3.40;;
6131;SDS011;3097;42.692;23.278;2023-03-01T13:50:15;5.57;;;2.80;;
6131;SDS011;3097;42.692;23.278;2023-03-01T13:53:02;3.37;;;3.07;;
6131;SDS011;3097;42.692;23.278;2023-03-01T13:58:29;3.17;;;2.90;;
6131;SDS011;3097;42.692;23.278;2023-03-01T14:01:02;3.30;;;3.00;;
6131;SDS011;3097;42.692;23.278;2023-03-01T14:03:30;3.27;;;2.90;;
6131;SDS011;3097;42.692;23.278;2023-03-01T14:05:58;5.70;;;3.10;;
6131;SDS011;3097;42.692;23.278;2023-03-01T14:08:34;3.07;;;2.87;;
6131;SDS011;3097;42.692;23.278;2023-03-01T14:19:18;3.30;;;3.00;;
6131;SDS011;3097;42.692;23.278;2023-03-01T14:21:58;3.90;;;2.63;;
6131;SDS011;3097;42.692;23.278;2023-03-01T14:24:30;3.63;;;3.30;;
6131;SDS011;3097;42.692;23.278;2023-03-01T14:27:00;3.67;;;3.37;;
6131;SDS011;3097;42.692;23.278;2023-03-01T14:29:36;4.43;;;3.30;;
6131;SDS011;3097;42.692;23.278;2023-03-01T14:32:24;4.00;;;3.30;;
6131;SDS011;3097;42.692;23.278;2023-03-01T14:34:51;3.33;;;3.03;;
6131;SDS011;3097;42.692;23.278;2023-03-01T14:37:21;3.00;;;2.73;;
6131;SDS011;3097;42.692;23.278;2023-03-01T14:39:51;2.57;;;2.37;;
6131;SDS011;3097;42.692;23.278;2023-03-01T14:42:17;4.10;;;2.93;;
6131;SDS011;3097;42.692;23.278;2023-03-01T14:44:46;5.07;;;3.20;;
6131;SDS011;3097;42.692;23.278;2023-03-01T14:47:16;4.77;;;3.50;;
6131;SDS011;3097;42.692;23.278;2023-03-01T14:49:52;3.50;;;3.20;;
6131;SDS011;3097;42.692;23.278;2023-03-01T14:52:22;5.73;;;2.70;;
6131;SDS011;3097;42.692;23.278;2023-03-01T14:54:56;2.93;;;2.73;;
6131;SDS011;3097;42.692;23.278;2023-03-01T14:57:23;3.30;;;3.00;;
6131;SDS011;3097;42.692;23.278;2023-03-01T14:59:52;4.23;;;3.30;;
6131;SDS011;3097;42.692;23.278;2023-03-01T15:02:21;3.43;;;3.13;;
6131;SDS011;3097;42.692;23.278;2023-03-01T15:04:51;2.50;;;2.30;;
6131;SDS011;3097;42.692;23.278;2023-03-01T15:07:19;3.70;;;3.40;;
6131;SDS011;3097;42.692;23.278;2023-03-01T15:09:44;3.03;;;2.73;;
6131;SDS011;3097;42.692;23.278;2023-03-01T15:14:55;2.80;;;2.57;;
6131;SDS011;3097;42.692;23.278;2023-03-01T15:17:35;3.00;;;2.67;;
6131;SDS011;3097;42.692;23.278;2023-03-01T15:20:04;3.63;;;3.10;;
6131;SDS011;3097;42.692;23.278;2023-03-01T15:22:32;3.20;;;2.93;;
6131;SDS011;3097;42.692;23.278;2023-03-01T15:24:58;3.73;;;3.23;;
6131;SDS011;3097;42.692;23.278;2023-03-01T15:27:25;3.30;;;3.00;;
6131;SDS011;3097;42.692;23.278;2023-03-01T15:29:53;4.17;;;3.20;;
6131;SDS011;3097;42.692;23.278;2023-03-01T15:32:24;3.90;;;3.33;;
6131;SDS011;3097;42.692;23.278;2023-03-01T15:34:53;7.03;;;3.03;;
6131;SDS011;3097;42.692;23.278;2023-03-01T15:37:39;3.77;;;3.27;;
6131;SDS011;3097;42.692;23.278;2023-03-01T15:43:03;3.30;;;3.00;;
6131;SDS011;3097;42.692;23.278;2023-03-01T15:45:30;4.37;;;3.53;;
6131;SDS011;3097;42.692;23.278;2023-03-01T15:48:05;3.37;;;2.63;;
6131;SDS011;3097;42.692;23.278;2023-03-01T15:50:42;4.23;;;3.83;;
6131;SDS011;3097;42.692;23.278;2023-03-01T15:53:12;6.40;;;3.33;;
6131;SDS011;3097;42.692;23.278;2023-03-01T15:55:40;5.37;;;3.77;;
6131;SDS011;3097;42.692;23.278;2023-03-01T15:58:09;3.60;;;3.30;;
6131;SDS011;3097;42.692;23.278;2023-03-01T16:00:38;3.47;;;2.80;;
6131;SDS011;3097;42.692;23.278;2023-03-01T16:03:04;4.37;;;2.63;;
6131;SDS011;3097;42.692;23.278;2023-03-01T16:05:31;3.10;;;2.50;;
6131;SDS011;3097;42.692;23.278;2023-03-01T16:07:57;3.87;;;3.13;;
6131;SDS011;3097;42.692;23.278;2023-03-01T16:10:23;3.97;;;3.20;;
6131;SDS011;3097;42.692;23.278;2023-03-01T16:12:50;3.63;;;2.73;;
6131;SDS011;3097;42.692;23.278;2023-03-01T16:15:21;6.50;;;3.20;;
6131;SDS011;3097;42.692;23.278;2023-03-01T16:17:54;4.10;;;3.70;;
6131;SDS011;3097;42.692;23.278;2023-03-01T16:20:20;3.93;;;3.53;;
6131;SDS011;3097;42.692;23.278;2023-03-01T16:22:46;4.60;;;3.47;;
6131;SDS011;3097;42.692;23.278;2023-03-01T16:25:13;4.97;;;2.73;;
6131;SDS011;3097;42.692;23.278;2023-03-01T16:27:43;4.50;;;3.57;;
6131;SDS011;3097;42.692;23.278;2023-03-01T16:30:10;3.70;;;3.00;;
6131;SDS011;3097;42.692;23.278;2023-03-01T16:32:38;6.60;;;3.40;;
6131;SDS011;3097;42.692;23.278;2023-03-01T16:35:04;4.20;;;3.67;;
6131;SDS011;3097;42.692;23.278;2023-03-01T16:37:32;7.80;;;3.70;;
6131;SDS011;3097;42.692;23.278;2023-03-01T16:39:58;3.50;;;3.20;;
6131;SDS011;3097;42.692;23.278;2023-03-01T16:42:23;4.00;;;3.60;;
6131;SDS011;3097;42.692;23.278;2023-03-01T16:44:51;3.50;;;3.17;;
6131;SDS011;3097;42.692;23.278;2023-03-01T16:47:20;5.00;;;3.63;;
6131;SDS011;3097;42.692;23.278;2023-03-01T16:49:45;4.93;;;3.30;;
6131;SDS011;3097;42.692;23.278;2023-03-01T16:52:11;5.23;;;4.20;;
6131;SDS011;3097;42.692;23.278;2023-03-01T16:54:36;4.87;;;3.13;;
6131;SDS011;3097;42.692;23.278;2023-03-01T16:57:02;5.30;;;4.80;;
6131;SDS011;3097;42.692;23.278;2023-03-01T16:59:27;3.67;;;3.37;;